Time;durP1;ratioP1;P1;durP2;ratioP2;P2;SDS_P1;SDS_P2;PMS_P1;PMS_P2;Temp;Humidity;BMP_temperature;BMP_pressure;BME280_temperature;BME280_humidity;BME280_pressure;Samples;Min_cycle;Max_cycle;Signal;HPM_P1;HPM_P2
2023/08/28 00:01:25;;;;;;;3.00;1.20;;;;;;;12.88;89.24;101102.03;7394918;19;19923;-75
2023/08/28 00:03:57;;;;;;;1.30;1.02;;;;;;;12.87;89.40;101100.34;7394121;19;22485;-75
2023/08/28 00:06:25;;;;;;;3.33;1.05;;;;;;;12.86;89.11;101098.66;7395352;19;19935;-75
2023/08/28 00:08:54;;;;;;;3.30;1.00;;;;;;;12.86;89.38;101098.66;7393741;19;20353;-75
2023/08/28 00:11:22;;;;;;;5.00;1.00;;;;;;;12.85;89.75;101094.28;7394262;19;20809;-76
2023/08/28 00:13:51;;;;;;;2.03;0.90;;;;;;;12.83;89.78;101099.03;7395837;19;19914;-75
2023/08/28 00:16:20;;;;;;;2.78;1.00;;;;;;;12.81;89.50;101110.06;7395895;19;19919;-75
2023/08/28 00:18:48;;;;;;;1.45;0.98;;;;;;;12.80;89.75;101099.41;7395756;19;19935;-76
2023/08/28 00:21:20;;;;;;;1.83;0.90;;;;;;;12.80;89.56;101099.41;7396201;19;20290;-75
2023/08/28 00:23:49;;;;;;;2.95;1.00;;;;;;;12.78;89.96;101102.28;7395402;19;19993;-76
2023/08/28 00:26:17;;;;;;;2.47;0.80;;;;;;;12.77;90.09;101110.59;7394314;19;19923;-76
2023/08/28 00:28:46;;;;;;;1.98;0.60;;;;;;;12.77;90.06;101097.09;7393470;19;19929;-75
2023/08/28 00:31:14;;;;;;;4.15;0.77;;;;;;;12.77;89.91;101095.19;7392057;19;19923;-75
2023/08/28 00:33:43;;;;;;;3.92;0.80;;;;;;;12.78;89.69;101099.59;7393718;19;19957;-75
2023/08/28 00:36:34;;;;;;;3.65;1.02;;;;;;;12.79;90.19;101092.31;7388141;19;19926;-76
2023/08/28 00:39:03;;;;;;;2.15;1.55;;;;;;;12.80;89.85;101100.25;7393501;19;19923;-75
2023/08/28 00:41:33;;;;;;;3.65;0.70;;;;;;;12.82;89.98;101092.78;7395457;19;19923;-75
2023/08/28 00:44:02;;;;;;;1.38;0.73;;;;;;;12.83;89.88;101094.47;7395118;19;20015;-75
2023/08/28 00:46:31;;;;;;;2.58;1.05;;;;;;;12.84;89.98;101089.91;7393170;19;20371;-76
2023/08/28 00:49:19;;;;;;;6.40;1.00;;;;;;;12.84;89.89;101089.91;7396150;19;20022;-76
2023/08/28 00:52:11;;;;;;;3.08;1.08;;;;;;;12.83;90.24;101093.63;7399232;19;19930;-75
2023/08/28 00:54:41;;;;;;;;;;;;;;;12.70;91.24;101086.16;7403364;19;19950;-76
2023/08/28 00:57:11;;;;;;;2.33;1.25;;;;;;;12.81;89.76;101095.69;7400856;19;19922;-75
2023/08/28 00:59:41;;;;;;;4.55;1.05;;;;;;;12.82;90.00;101090.09;7400847;19;19915;-75
2023/08/28 01:02:10;;;;;;;2.33;0.90;;;;;;;12.83;90.01;101088.22;7401370;19;19923;-75
2023/08/28 01:04:38;;;;;;;1.13;0.70;;;;;;;12.83;90.14;101086.34;7398627;19;19918;-75
2023/08/28 01:07:19;;;;;;;2.47;1.02;;;;;;;12.83;89.99;101082.81;7401576;19;19927;-75
2023/08/28 01:10:01;;;;;;;2.58;0.82;;;;;;;12.81;90.03;101074.06;7400925;19;19944;-75
2023/08/28 01:12:43;;;;;;;2.70;0.90;;;;;;;12.80;89.86;101075.09;7401979;19;20317;-75
2023/08/28 01:15:20;;;;;;;2.35;0.85;;;;;;;12.79;89.81;101071.53;7398620;19;19923;-75
2023/08/28 01:17:53;;;;;;;3.40;0.88;;;;;;;12.77;89.97;101065.47;7402440;19;19929;-75
2023/08/28 01:20:24;;;;;;;1.27;0.70;;;;;;;12.76;89.83;101073.78;7401183;19;19967;-75
2023/08/28 01:23:04;;;;;;;2.65;0.73;;;;;;;12.70;90.16;101065.38;7400172;19;19918;-75
2023/08/28 01:25:36;;;;;;;3.08;0.85;;;;;;;12.71;89.79;101064.38;7400554;19;20013;-76
2023/08/28 01:28:06;;;;;;;2.65;0.73;;;;;;;12.69;89.98;101057.44;7400416;19;20414;-76
2023/08/28 01:30:35;;;;;;;3.22;1.00;;;;;;;12.70;90.22;101053.72;7400113;19;19918;-76
2023/08/28 01:33:03;;;;;;;4.50;1.25;;;;;;;12.72;89.94;101046.28;7399682;19;19948;-75
2023/08/28 01:35:34;;;;;;;2.92;0.85;;;;;;;12.73;90.00;101050.66;7398073;19;19926;-75
2023/08/28 01:38:14;;;;;;;2.85;0.98;;;;;;;12.71;89.66;101048.16;7399076;19;20367;-75
2023/08/28 01:40:50;;;;;;;2.83;1.00;;;;;;;12.70;89.83;101049.16;7398871;19;19918;-76
2023/08/28 01:43:23;;;;;;;0.80;0.60;;;;;;;12.69;89.74;101042.06;7399831;19;19930;-76
2023/08/28 01:45:52;;;;;;;0.95;0.65;;;;;;;12.71;89.91;101048.16;7398773;19;19922;-75
2023/08/28 01:48:21;;;;;;;2.15;0.63;;;;;;;12.71;90.13;101048.16;7398703;19;19919;-76
2023/08/28 01:50:49;;;;;;;1.45;0.73;;;;;;;12.72;89.54;101052.53;7398609;19;19938;-76
2023/08/28 01:53:18;;;;;;;1.67;0.73;;;;;;;12.72;89.88;101055.25;7399110;19;19926;-75
2023/08/28 01:56:19;;;;;;;1.05;0.60;;;;;;;12.62;90.18;101053.81;7398542;19;20156;-75
2023/08/28 01:58:49;;;;;;;2.80;0.70;;;;;;;12.69;90.02;101060.16;7401665;19;19926;-75
2023/08/28 02:01:18;;;;;;;2.92;0.63;;;;;;;12.67;89.68;101071.16;7402785;19;19922;-75
2023/08/28 02:03:47;;;;;;;1.00;0.65;;;;;;;12.66;90.18;101071.34;7399554;19;19951;-75
2023/08/28 02:06:16;;;;;;;4.65;0.80;;;;;;;12.64;90.00;101082.34;7399450;19;19922;-75
2023/08/28 02:08:45;;;;;;;2.47;0.70;;;;;;;12.66;90.16;101082.16;7400822;19;19953;-75
2023/08/28 02:11:17;;;;;;;2.83;0.88;;;;;;;12.67;90.14;101084.69;7400770;19;19927;-75
2023/08/28 02:13:45;;;;;;;2.70;0.95;;;;;;;12.68;90.27;101089.03;7397808;19;19918;-75
2023/08/28 02:16:14;;;;;;;2.33;0.85;;;;;;;12.69;90.10;101098.00;7399249;19;20622;-75
2023/08/28 02:18:42;;;;;;;2.97;0.93;;;;;;;12.71;90.08;101101.38;7397393;19;19922;-76
2023/08/28 02:21:11;;;;;;;1.27;0.70;;;;;;;12.70;90.13;101095.13;7397853;19;20321;-76
2023/08/28 02:23:40;;;;;;;2.28;0.80;;;;;;;12.70;90.01;101105.94;7398772;19;20428;-75
2023/08/28 02:26:08;;;;;;;4.45;0.82;;;;;;;12.70;90.10;101105.94;7399333;19;19941;-75
2023/08/28 02:28:39;;;;;;;1.85;0.90;;;;;;;12.70;90.01;101114.03;7397658;19;19926;-75
2023/08/28 02:31:08;;;;;;;5.22;1.05;;;;;;;12.68;90.16;101107.97;7395899;19;19926;-76
2023/08/28 02:33:37;;;;;;;2.83;1.02;;;;;;;12.67;90.26;101108.16;7396766;19;20341;-76
2023/08/28 02:36:06;;;;;;;3.55;0.90;;;;;;;12.65;89.84;101105.63;7399250;19;19958;-76
2023/08/28 02:38:34;;;;;;;3.30;1.10;;;;;;;12.63;90.07;101115.81;7398182;19;20272;-75
2023/08/28 02:41:07;;;;;;;3.10;1.17;;;;;;;12.61;90.31;101122.41;7398540;19;19985;-75
2023/08/28 02:43:38;;;;;;;1.42;0.98;;;;;;;12.56;90.33;101130.22;7398681;19;19925;-75
2023/08/28 02:46:07;;;;;;;1.60;0.93;;;;;;;12.49;90.01;101124.72;7397650;19;19922;-75
2023/08/28 02:48:36;;;;;;;3.88;1.17;;;;;;;12.44;90.33;101120.88;7397176;19;19930;-75
2023/08/28 02:51:05;;;;;;;2.55;1.48;;;;;;;12.40;90.52;101115.00;7390906;19;19986;-75
2023/08/28 02:53:33;;;;;;;5.30;1.20;;;;;;;12.38;90.56;101119.78;7396204;19;20352;-76
2023/08/28 02:56:27;;;;;;;2.83;1.45;;;;;;;12.28;91.42;101116.47;7396244;19;19922;-75
2023/08/28 02:58:58;;;;;;;4.75;1.27;;;;;;;12.29;90.74;101123.56;7397842;19;19926;-75
2023/08/28 03:01:28;;;;;;;3.10;1.65;;;;;;;12.25;91.40;101123.06;7396797;19;19918;-76
2023/08/28 03:03:56;;;;;;;4.30;1.50;;;;;;;12.25;91.60;101133.06;7394834;19;19926;-76
2023/08/28 03:06:25;;;;;;;4.38;1.60;;;;;;;12.25;91.65;101133.06;7396734;19;19927;-75
2023/08/28 03:08:54;;;;;;;4.93;1.60;;;;;;;12.25;91.86;101135.75;7397909;19;19986;-76
2023/08/28 03:11:23;;;;;;;6.00;1.83;;;;;;;12.24;91.49;101136.78;7393462;19;19918;-75
2023/08/28 03:13:51;;;;;;;2.63;2.10;;;;;;;12.23;91.73;101135.09;7398240;19;20443;-75
2023/08/28 03:16:23;;;;;;;4.25;1.88;;;;;;;12.23;91.69;101126.97;7396571;19;19930;-75
2023/08/28 03:18:52;;;;;;;3.13;1.77;;;;;;;12.25;91.81;101130.34;7396907;19;19926;-75
2023/08/28 03:21:21;;;;;;;3.92;1.95;;;;;;;12.25;91.53;101117.66;7394786;19;20352;-75
2023/08/28 03:23:49;;;;;;;5.55;1.80;;;;;;;12.26;91.71;101118.50;7394725;19;19998;-75
2023/08/28 03:26:18;;;;;;;2.88;1.65;;;;;;;12.25;91.39;101128.47;7395535;19;19933;-75
2023/08/28 03:28:46;;;;;;;4.03;1.77;;;;;;;12.25;91.77;101133.88;7397475;19;19938;-75
2023/08/28 03:31:15;;;;;;;2.50;1.17;;;;;;;12.25;91.66;101131.16;7394659;19;20344;-75
2023/08/28 03:33:46;;;;;;;3.00;1.15;;;;;;;12.24;91.78;101132.22;7395784;19;20348;-76
2023/08/28 03:36:15;;;;;;;2.40;1.55;;;;;;;12.24;91.42;101137.63;7396208;19;19930;-75
2023/08/28 03:38:43;;;;;;;3.22;1.70;;;;;;;12.22;91.67;101139.66;7394417;19;19919;-75
2023/08/28 03:41:32;;;;;;;2.78;1.33;;;;;;;12.21;91.60;101153.31;7389776;19;19926;-76
2023/08/28 03:44:00;;;;;;;3.05;1.58;;;;;;;12.21;91.80;101158.72;7394594;19;19923;-75
2023/08/28 03:46:29;;;;;;;3.03;1.50;;;;;;;12.20;91.70;101162.47;7393735;19;20381;-76
2023/08/28 03:49:00;;;;;;;3.03;1.65;;;;;;;12.20;91.62;101159.75;7392382;19;20366;-76
2023/08/28 03:51:29;;;;;;;5.93;1.58;;;;;;;12.21;91.64;101153.31;7389332;19;20361;-76
2023/08/28 03:54:17;;;;;;;2.85;1.60;;;;;;;12.18;91.68;101149.13;7393128;19;19922;-75
2023/08/28 03:56:46;;;;;;;3.10;1.40;;;;;;;12.18;91.58;101151.00;7392301;19;20593;-76
2023/08/28 03:59:14;;;;;;;5.43;1.40;;;;;;;12.15;91.96;101159.47;7394181;19;19981;-76
2023/08/28 04:01:44;;;;;;;2.13;1.50;;;;;;;12.15;92.09;101159.47;7388332;19;19922;-76
2023/08/28 04:04:16;;;;;;;2.00;1.50;;;;;;;12.15;91.99;101165.72;7392191;19;19914;-76
2023/08/28 04:06:46;;;;;;;2.97;1.23;;;;;;;12.15;91.83;101162.16;7391354;19;19922;-76
2023/08/28 04:09:16;;;;;;;3.53;1.33;;;;;;;12.13;92.08;101156.09;7393913;19;19923;-76
2023/08/28 04:11:45;;;;;;;3.88;1.55;;;;;;;12.14;91.81;101164.03;7390344;19;19926;-75
2023/08/28 04:14:13;;;;;;;1.95;1.50;;;;;;;12.10;92.33;101156.47;7393563;19;19939;-75
2023/08/28 04:16:42;;;;;;;2.70;1.52;;;;;;;12.07;92.34;101146.03;7392072;19;19950;-76
2023/08/28 04:19:11;;;;;;;3.95;1.67;;;;;;;12.04;92.33;101144.50;7392002;19;19930;-76
2023/08/28 04:21:42;;;;;;;3.17;1.50;;;;;;;12.02;92.39;101143.00;7394437;19;20370;-76
2023/08/28 04:24:10;;;;;;;4.07;1.60;;;;;;;12.01;92.46;101144.03;7390565;19;19986;-76
2023/08/28 04:26:59;;;;;;;4.13;1.73;;;;;;;12.00;92.36;101153.16;7391300;19;19924;-76
2023/08/28 04:29:28;;;;;;;3.20;1.50;;;;;;;12.01;92.24;101152.97;7392806;19;19926;-76
2023/08/28 04:31:56;;;;;;;4.07;1.55;;;;;;;12.02;92.36;101153.81;7390869;19;19923;-76
2023/08/28 04:34:25;;;;;;;5.00;1.83;;;;;;;12.02;92.52;101154.66;7386935;19;20296;-76
2023/08/28 04:36:56;;;;;;;2.35;1.23;;;;;;;12.04;92.49;101151.75;7389692;19;20534;-76
2023/08/28 04:39:25;;;;;;;;;;;;;;;11.90;93.59;101155.25;7254366;19;2763759;-76
2023/08/28 04:41:54;;;;;;;5.70;1.58;;;;;;;12.00;92.60;101161.25;7392993;19;20397;-76
2023/08/28 04:44:23;;;;;;;4.05;1.42;;;;;;;12.02;92.19;101153.81;7388130;19;19976;-76
2023/08/28 04:46:52;;;;;;;3.78;2.10;;;;;;;12.04;92.62;101167.97;7390791;19;19927;-76
2023/08/28 04:49:20;;;;;;;4.47;1.50;;;;;;;12.04;92.42;101170.66;7389968;19;19930;-76
2023/08/28 04:51:49;;;;;;;2.25;1.42;;;;;;;12.06;92.25;101179.44;7393271;19;19952;-76
2023/08/28 04:54:20;;;;;;;3.00;1.33;;;;;;;12.06;92.41;101180.28;7394561;19;19922;-77
2023/08/28 04:56:49;;;;;;;4.68;2.30;;;;;;;12.06;92.53;101172.19;7390965;19;19922;-76
2023/08/28 04:59:17;;;;;;;2.97;1.50;;;;;;;12.07;92.49;101176.56;7385393;19;19950;-76
2023/08/28 05:01:47;;;;;;;4.50;1.52;;;;;;;12.09;92.46;101184.47;7392588;19;20356;-76
2023/08/28 05:04:15;;;;;;;5.15;1.65;;;;;;;12.11;92.50;101177.06;7393011;19;20328;-76
2023/08/28 05:06:44;;;;;;;4.05;1.33;;;;;;;12.13;92.30;101180.38;7395121;19;19939;-76
2023/08/28 05:09:13;;;;;;;3.92;1.45;;;;;;;12.15;92.20;101181.06;7392791;19;20356;-76
2023/08/28 05:12:04;;;;;;;2.10;1.23;;;;;;;12.15;91.98;101175.66;7376287;19;19925;-76
2023/08/28 05:14:32;;;;;;;3.60;1.55;;;;;;;12.18;91.91;101180.69;7386838;19;19930;-76
2023/08/28 05:17:01;;;;;;;4.03;1.63;;;;;;;12.19;91.90;101183.22;7387079;19;19942;-76
2023/08/28 05:19:29;;;;;;;4.18;1.50;;;;;;;12.19;91.81;101187.78;7381483;19;19923;-75
2023/08/28 05:21:58;;;;;;;2.08;1.30;;;;;;;12.20;91.81;101184.06;7372520;19;20340;-75
2023/08/28 05:24:27;;;;;;;1.83;1.30;;;;;;;12.21;92.01;101181.19;7390427;19;20348;-75
2023/08/28 05:26:55;;;;;;;3.55;1.50;;;;;;;12.22;92.15;101182.03;7394580;19;19919;-75
2023/08/28 05:29:26;;;;;;;1.92;1.30;;;;;;;12.22;91.75;101182.88;7379922;19;19927;-75
2023/08/28 05:31:55;;;;;;;1.77;1.48;;;;;;;12.23;91.98;101178.31;7389353;19;19923;-76
2023/08/28 05:34:24;;;;;;;5.03;1.52;;;;;;;12.26;92.25;101178.78;7394853;19;20592;-75
2023/08/28 05:36:52;;;;;;;4.05;1.40;;;;;;;12.27;91.99;101179.63;7392697;19;19926;-75
2023/08/28 05:39:21;;;;;;;3.33;1.40;;;;;;;12.31;92.21;101180.94;7397462;19;19962;-75
2023/08/28 05:41:49;;;;;;;3.97;1.30;;;;;;;12.34;92.03;101177.88;7387957;19;19927;-75
2023/08/28 05:44:18;;;;;;;3.10;1.30;;;;;;;12.38;91.98;101176.50;7381469;19;19922;-76
2023/08/28 05:46:49;;;;;;;3.42;1.70;;;;;;;12.41;92.26;101178.84;7387927;19;19957;-75
2023/08/28 05:49:18;;;;;;;3.60;1.50;;;;;;;12.44;92.56;101172.22;7389034;19;19919;-76
2023/08/28 05:51:46;;;;;;;3.55;1.67;;;;;;;12.50;92.08;101177.75;7398594;19;19930;-75
2023/08/28 05:54:17;;;;;;;1.23;1.10;;;;;;;12.55;91.77;101174.50;7401727;19;19919;-76
2023/08/28 05:56:45;;;;;;;3.05;1.38;;;;;;;12.61;92.00;101162.94;7396823;19;19926;-74
2023/08/28 05:59:14;;;;;;;2.60;1.23;;;;;;;12.66;91.78;101166.78;7400379;19;19926;-75
2023/08/28 06:01:42;;;;;;;2.47;1.52;;;;;;;12.71;91.91;101167.09;7397732;19;19923;-75
2023/08/28 06:04:17;;;;;;;1.70;1.60;;;;;;;12.77;91.87;101167.38;7399022;19;20578;-76
2023/08/28 06:06:46;;;;;;;3.63;1.10;;;;;;;12.83;91.71;101169.34;7395626;19;19926;-75
2023/08/28 06:09:15;;;;;;;3.08;1.38;;;;;;;12.88;91.99;101165.06;7363390;19;20293;-74
2023/08/28 06:11:44;;;;;;;3.20;1.45;;;;;;;12.94;91.56;101167.03;7385763;19;19931;-81
2023/08/28 06:14:12;;;;;;;5.07;1.38;;;;;;;13.00;91.65;101174.38;7402300;19;19922;-80
2023/08/28 06:16:41;;;;;;;3.25;1.23;;;;;;;13.05;91.21;101174.69;7397799;19;19970;-79
2023/08/28 06:19:10;;;;;;;3.63;1.30;;;;;;;13.13;91.14;101179.19;7400751;19;19929;-79
2023/08/28 06:21:44;;;;;;;4.65;1.25;;;;;;;13.17;91.46;101178.63;7398819;19;20797;-75
2023/08/28 06:24:13;;;;;;;2.80;1.23;;;;;;;13.24;91.09;101181.44;7397633;19;19931;-74
2023/08/28 06:26:44;;;;;;;3.63;1.13;;;;;;;13.30;90.58;101187.94;7399150;19;19941;-74
2023/08/28 06:29:12;;;;;;;3.75;1.15;;;;;;;13.33;90.84;101193.81;7398261;19;19946;-74
2023/08/28 06:31:41;;;;;;;2.92;1.20;;;;;;;13.38;90.29;101191.41;7397295;19;19927;-74
2023/08/28 06:34:29;;;;;;;4.00;1.50;;;;;;;13.42;90.40;101191.84;7397126;19;19933;-74
2023/08/28 06:37:01;;;;;;;3.03;2.08;;;;;;;13.48;90.17;101199.25;7395882;19;19922;-74
2023/08/28 06:39:30;;;;;;;2.22;1.70;;;;;;;13.52;89.78;101190.56;7393700;19;20327;-74
2023/08/28 06:41:58;;;;;;;3.47;1.65;;;;;;;13.58;89.69;101203.34;7398664;19;19918;-74
2023/08/28 06:44:47;;;;;;;4.57;1.40;;;;;;;13.63;89.67;101206.31;7396316;19;19941;-74
2023/08/28 06:47:18;;;;;;;3.45;1.25;;;;;;;13.71;89.93;101201.84;7393540;19;19926;-74
2023/08/28 06:49:46;;;;;;;4.55;1.42;;;;;;;13.76;89.98;101192.13;7396161;19;19938;-75
2023/08/28 06:52:17;;;;;;;3.70;1.42;;;;;;;13.84;90.26;101196.59;7396232;19;19954;-74
2023/08/28 06:54:47;;;;;;;3.63;1.33;;;;;;;13.91;90.15;101200.19;7396886;19;20267;-74
2023/08/28 06:57:16;;;;;;;3.53;1.25;;;;;;;14.00;89.48;101201.75;7396899;19;19946;-74
2023/08/28 06:59:44;;;;;;;4.32;1.30;;;;;;;14.04;89.32;101194.94;7399136;19;19918;-75
2023/08/28 07:02:13;;;;;;;1.83;1.30;;;;;;;14.07;89.38;101202.66;7396202;19;19926;-74
2023/08/28 07:05:02;;;;;;;3.00;1.35;;;;;;;14.13;89.37;101201.06;7394139;19;19957;-74
2023/08/28 07:07:34;;;;;;;3.10;1.58;;;;;;;14.16;89.48;101198.81;7395660;19;19930;-75
2023/08/28 07:10:04;;;;;;;3.08;1.75;;;;;;;14.20;89.37;101216.34;7397915;19;19926;-74
2023/08/28 07:12:33;;;;;;;4.63;1.13;;;;;;;14.26;89.35;101214.75;7396081;19;19927;-74
2023/08/28 07:15:31;;;;;;;1.90;1.40;;;;;;;14.28;89.60;101216.22;7395907;19;20360;-74
2023/08/28 07:18:00;;;;;;;3.75;1.67;;;;;;;14.37;88.41;101212.41;7398123;19;19926;-74
2023/08/28 07:20:29;;;;;;;4.18;1.30;;;;;;;14.40;88.51;101205.78;7393903;19;19930;-74
2023/08/28 07:23:00;;;;;;;4.88;1.75;;;;;;;14.44;88.69;101221.47;7396667;19;20274;-74
2023/08/28 07:25:29;;;;;;;4.60;1.60;;;;;;;14.48;88.11;101236.31;7396864;19;20399;-74
2023/08/28 07:27:57;;;;;;;4.38;1.52;;;;;;;14.54;87.93;101227.38;7394783;19;19918;-74
2023/08/28 07:30:26;;;;;;;4.20;1.50;;;;;;;14.61;88.42;101232.03;7398382;19;19927;-74
2023/08/28 07:32:54;;;;;;;3.05;1.52;;;;;;;14.68;88.16;101238.34;7395666;19;19923;-75
2023/08/28 07:35:23;;;;;;;2.47;1.48;;;;;;;14.73;87.70;101241.31;7397722;19;19926;-74
2023/08/28 07:37:52;;;;;;;6.95;1.80;;;;;;;14.79;87.80;101243.25;7395501;19;20601;-74
2023/08/28 07:40:43;;;;;;;5.10;1.90;;;;;;;14.86;87.87;101241.44;7393833;19;19926;-75
2023/08/28 07:43:12;;;;;;;3.15;1.90;;;;;;;14.89;87.15;101251.88;7395029;19;20478;-74
2023/08/28 07:45:41;;;;;;;3.30;1.80;;;;;;;14.92;87.51;101251.50;7394962;19;19933;-74
2023/08/28 07:48:10;;;;;;;3.30;2.00;;;;;;;14.95;87.22;101251.94;7394510;19;20660;-74
2023/08/28 07:50:42;;;;;;;5.30;2.17;;;;;;;15.02;87.53;101256.56;7396332;19;19922;-74
2023/08/28 07:53:12;;;;;;;3.22;1.75;;;;;;;15.06;86.95;101247.84;7396461;19;20356;-75
2023/08/28 07:55:43;;;;;;;3.67;2.20;;;;;;;15.09;86.89;101247.47;7395742;19;19990;-74
2023/08/28 07:58:12;;;;;;;4.72;1.98;;;;;;;15.12;86.99;101249.78;7395621;19;19922;-74
2023/08/28 08:00:42;;;;;;;2.97;1.45;;;;;;;15.20;87.50;101260.50;7396247;19;19926;-74
2023/08/28 08:03:12;;;;;;;3.28;1.67;;;;;;;15.29;87.22;101256.59;7392660;19;20588;-74
2023/08/28 08:05:41;;;;;;;2.53;1.45;;;;;;;15.39;87.20;101257.09;7396574;19;20548;-74
2023/08/28 08:08:10;;;;;;;3.60;1.23;;;;;;;15.50;86.39;101266.56;7394456;19;19928;-74
2023/08/28 08:10:39;;;;;;;3.80;1.10;;;;;;;15.57;86.26;101266.63;7396083;19;19947;-75
2023/08/28 08:13:10;;;;;;;4.70;1.33;;;;;;;15.64;85.78;101262.06;7393669;19;19922;-74
2023/08/28 08:15:39;;;;;;;2.50;1.05;;;;;;;15.69;85.75;101265.00;7394470;19;19922;-74
2023/08/28 08:18:08;;;;;;;3.20;1.35;;;;;;;15.77;84.58;101273.84;7394407;19;19946;-74
2023/08/28 08:20:37;;;;;;;3.47;1.27;;;;;;;15.84;84.85;101274.69;7396556;19;19919;-74
2023/08/28 08:23:06;;;;;;;2.55;1.23;;;;;;;15.88;84.66;101267.81;7393903;19;20274;-74
2023/08/28 08:25:35;;;;;;;2.30;1.10;;;;;;;15.94;84.24;101266.19;7394677;19;20348;-74
2023/08/28 08:28:04;;;;;;;2.35;0.93;;;;;;;16.02;84.38;101265.16;7394417;19;19922;-74
2023/08/28 08:30:36;;;;;;;5.07;1.00;;;;;;;16.12;83.85;101271.91;7395897;19;19919;-74
2023/08/28 08:33:05;;;;;;;2.55;1.00;;;;;;;16.19;82.76;101266.47;7393358;19;19929;-74
2023/08/28 08:35:34;;;;;;;1.13;0.57;;;;;;;16.26;82.52;101268.19;7395561;19;20373;-74
2023/08/28 08:38:03;;;;;;;1.92;0.60;;;;;;;16.37;81.83;101263.19;7394538;19;20335;-74
2023/08/28 08:40:31;;;;;;;3.70;0.80;;;;;;;16.45;81.72;101261.13;7394196;19;19933;-75
2023/08/28 08:43:00;;;;;;;2.35;0.60;;;;;;;16.50;81.27;101261.34;7395099;19;20392;-74
2023/08/28 08:45:55;;;;;;;2.42;0.60;;;;;;;16.55;79.69;101261.56;7390820;19;19925;-74
2023/08/28 08:48:24;;;;;;;3.28;0.80;;;;;;;16.65;80.35;101267.44;7393123;19;19932;-75
2023/08/28 08:50:53;;;;;;;2.00;0.70;;;;;;;16.73;79.18;101259.13;7395429;19;19929;-74
2023/08/28 08:53:31;;;;;;;1.63;0.95;;;;;;;16.81;79.26;101268.97;7393401;19;19923;-75
2023/08/28 08:56:04;;;;;;;;;;;;;;;16.75;78.23;101267.06;7397772;19;20352;-75
2023/08/28 08:58:53;;;;;;;0.88;0.52;;;;;;;16.90;79.15;101275.88;7391130;19;19930;-75
2023/08/28 09:01:25;;;;;;;2.35;0.70;;;;;;;16.89;79.06;101271.47;7391911;19;19927;-74
2023/08/28 09:03:55;;;;;;;1.88;0.80;;;;;;;17.03;78.29;101275.03;7392373;19;19915;-75
2023/08/28 09:06:25;;;;;;;2.45;0.70;;;;;;;17.20;78.41;101268.97;7393713;19;20287;-74
2023/08/28 09:08:54;;;;;;;2.92;0.80;;;;;;;17.37;78.00;101268.53;7392036;19;19922;-74
2023/08/28 09:11:23;;;;;;;1.27;0.43;;;;;;;17.50;76.90;101271.22;7399325;19;19926;-75
2023/08/28 09:13:52;;;;;;;3.42;0.90;;;;;;;17.52;75.25;101269.09;7397839;19;20852;-74
2023/08/28 09:16:23;;;;;;;2.88;1.30;;;;;;;17.64;75.13;101264.72;7400378;19;19938;-74
2023/08/28 09:18:52;;;;;;;3.83;0.70;;;;;;;17.84;75.13;101257.31;7398261;19;19922;-75
2023/08/28 09:21:21;;;;;;;4.25;0.90;;;;;;;18.01;75.30;101253.06;7400887;19;19952;-75
2023/08/28 09:23:52;;;;;;;2.22;0.60;;;;;;;18.02;74.01;101257.47;7396750;19;19926;-75
2023/08/28 09:26:22;;;;;;;1.45;0.60;;;;;;;18.02;74.41;101271.09;7398032;19;19922;-75
2023/08/28 09:29:00;;;;;;;1.60;0.80;;;;;;;17.95;72.46;101258.53;7398162;19;20427;-74
2023/08/28 09:31:33;;;;;;;0.75;0.50;;;;;;;18.12;72.58;101263.28;7398456;19;19922;-74
2023/08/28 09:34:03;;;;;;;1.60;0.60;;;;;;;18.32;73.18;101267.81;7398637;19;19977;-75
2023/08/28 09:36:35;;;;;;;3.45;0.70;;;;;;;18.51;72.40;101272.28;7401322;19;19930;-74
2023/08/28 09:39:06;;;;;;;3.90;0.60;;;;;;;18.63;72.08;101272.50;7397671;19;19949;-74
2023/08/28 09:41:55;;;;;;;4.00;0.63;;;;;;;18.74;69.66;101274.50;7397410;19;20321;-74
2023/08/28 09:44:28;;;;;;;1.23;0.50;;;;;;;18.81;66.39;101272.56;7400985;19;19926;-74
2023/08/28 09:46:59;;;;;;;2.28;0.60;;;;;;;18.87;68.53;101269.78;7399988;19;19922;-75
2023/08/28 09:49:29;;;;;;;1.60;0.60;;;;;;;18.98;68.96;101270.97;7399460;19;19948;-74
2023/08/28 09:52:01;;;;;;;1.48;0.47;;;;;;;18.99;67.96;101270.72;7398039;19;19922;-74
2023/08/28 09:54:30;;;;;;;4.25;0.75;;;;;;;18.87;69.29;101271.69;7396580;19;19926;-74
2023/08/28 09:56:59;;;;;;;1.15;0.50;;;;;;;18.70;69.79;101274.09;7398940;19;19915;-75
2023/08/28 09:59:48;;;;;;;4.10;0.70;;;;;;;18.52;69.62;101276.72;7398501;19;19928;-75
2023/08/28 10:02:24;;;;;;;1.42;0.50;;;;;;;18.36;67.52;101278.06;7397678;19;20627;-74
2023/08/28 10:04:55;;;;;;;2.72;0.40;;;;;;;18.31;68.94;101279.75;7398839;19;19922;-74
2023/08/28 10:07:25;;;;;;;0.60;0.43;;;;;;;18.23;68.63;101293.66;7394803;19;20290;-75
2023/08/28 10:10:00;;;;;;;1.40;0.50;;;;;;;18.17;69.64;101295.34;7393533;19;19926;-77
2023/08/28 10:12:30;;;;;;;0.95;0.50;;;;;;;18.09;70.38;101292.88;7398252;19;19978;-74
2023/08/28 10:15:01;;;;;;;2.67;0.65;;;;;;;18.02;70.97;101294.78;7397099;19;19930;-80
2023/08/28 10:17:36;;;;;;;1.55;0.45;;;;;;;17.90;72.10;101293.81;7399652;19;19922;-80
2023/08/28 10:20:09;;;;;;;2.15;0.55;;;;;;;17.83;73.35;101279.34;7397235;19;19934;-82
2023/08/28 10:22:40;;;;;;;1.75;0.57;;;;;;;17.77;73.44;101288.38;7399915;19;20457;-80
2023/08/28 10:25:11;;;;;;;0.65;0.50;;;;;;;17.72;74.41;101286.31;7397757;19;19946;-80
2023/08/28 10:27:41;;;;;;;2.50;0.60;;;;;;;17.67;75.11;101289.66;7398957;19;19922;-82
2023/08/28 10:30:13;;;;;;;1.10;0.45;;;;;;;17.68;75.36;101295.94;7398281;19;19926;-84
2023/08/28 10:32:46;;;;;;;2.22;0.50;;;;;;;17.68;76.18;101290.50;7398899;19;19923;-86
2023/08/28 10:35:14;;;;;;;0.98;0.50;;;;;;;17.69;75.60;101282.09;7397458;19;19918;-84
2023/08/28 10:37:45;;;;;;;1.63;0.50;;;;;;;17.76;76.62;101295.72;7397217;19;19997;-83
2023/08/28 10:40:17;;;;;;;1.05;0.60;;;;;;;17.83;78.40;101298.41;7398919;19;19937;-85
2023/08/28 10:42:46;;;;;;;1.77;0.60;;;;;;;18.29;77.18;101296.38;7400504;19;19930;-78
2023/08/28 10:45:15;;;;;;;2.90;0.57;;;;;;;18.71;74.33;101291.31;7398876;19;19955;-74
2023/08/28 10:47:53;;;;;;;2.63;0.70;;;;;;;18.93;73.73;101290.75;7397423;19;19920;-74
2023/08/28 10:50:22;;;;;;;1.17;0.60;;;;;;;18.95;71.61;101287.78;7399051;19;19922;-74
2023/08/28 10:52:51;;;;;;;1.23;0.40;;;;;;;18.80;70.83;101301.75;7397554;19;19918;-74
2023/08/28 10:55:22;;;;;;;2.72;0.82;;;;;;;18.59;68.80;101299.38;7397482;19;19926;-74
2023/08/28 10:57:51;;;;;;;;;;;;;;;18.21;66.32;101299.31;7399401;19;19982;-74
2023/08/28 11:00:21;;;;;;;;;;;;;;;18.06;67.51;101302.34;7401477;19;19919;-74
2023/08/28 11:03:08;;;;;;;0.82;0.40;;;;;;;18.10;70.49;101298.13;7395743;19;19956;-74
2023/08/28 11:05:40;;;;;;;2.72;0.55;;;;;;;18.21;72.01;101303.97;7397701;19;19937;-75
2023/08/28 11:08:11;;;;;;;0.93;0.70;;;;;;;18.35;71.87;101309.13;7398684;19;19951;-74
2023/08/28 11:10:44;;;;;;;2.17;0.60;;;;;;;18.53;72.36;101305.69;7396252;19;20363;-74
2023/08/28 11:13:22;;;;;;;1.42;0.50;;;;;;;18.72;69.50;101306.66;7396572;19;19994;-74
2023/08/28 11:15:51;;;;;;;3.13;0.45;;;;;;;18.92;68.73;101301.88;7393019;19;19952;-74
2023/08/28 11:18:31;;;;;;;3.88;0.50;;;;;;;18.94;68.01;101306.06;7397214;19;20352;-74
2023/08/28 11:21:02;;;;;;;2.08;0.60;;;;;;;18.91;68.04;101306.50;7398202;19;19922;-74
2023/08/28 11:23:54;;;;;;;1.52;0.63;;;;;;;18.79;69.24;101305.53;7395248;19;19982;-74
2023/08/28 11:26:32;;;;;;;1.02;0.60;;;;;;;18.70;69.12;101312.31;7395659;19;19939;-72
2023/08/28 11:29:00;;;;;;;1.33;0.55;;;;;;;18.71;70.11;101316.72;7391372;19;19927;-73
2023/08/28 11:31:33;;;;;;;0.95;0.50;;;;;;;18.66;70.05;101311.09;7395448;19;19946;-73
2023/08/28 11:34:06;;;;;;;1.23;0.40;;;;;;;18.50;68.85;101319.75;7389912;19;19986;-73
2023/08/28 11:36:41;;;;;;;1.92;0.52;;;;;;;18.43;69.68;101322.50;7395455;19;19938;-73
2023/08/28 11:39:22;;;;;;;1.08;0.57;;;;;;;18.32;69.40;101333.28;7392061;19;19925;-73
2023/08/28 11:41:52;;;;;;;1.45;0.57;;;;;;;18.31;70.32;101334.31;7395920;19;19919;-73
2023/08/28 11:44:20;;;;;;;4.28;0.68;;;;;;;18.34;69.94;101322.97;7392947;19;19935;-73
2023/08/28 11:46:49;;;;;;;3.08;0.50;;;;;;;18.37;69.62;101330.75;7395123;19;20277;-73